sensor_id;sensor_type;location;lat;lon;timestamp;P1;durP1;ratioP1;P2;durP2;ratioP2
48685;SDS011;34485;51.536;3.816;2022-12-20T00:00:49;6.88;;;3.53;;
48685;SDS011;34485;51.536;3.816;2022-12-20T00:03:15;6.68;;;3.38;;
48685;SDS011;34485;51.536;3.816;2022-12-20T00:05:42;5.85;;;3.50;;
48685;SDS011;34485;51.536;3.816;2022-12-20T00:08:08;6.40;;;3.47;;
48685;SDS011;34485;51.536;3.816;2022-12-20T00:10:35;4.27;;;2.73;;
48685;SDS011;34485;51.536;3.816;2022-12-20T00:13:01;4.22;;;3.25;;
48685;SDS011;34485;51.536;3.816;2022-12-20T00:15:27;5.75;;;3.70;;
48685;SDS011;34485;51.536;3.816;2022-12-20T00:17:53;5.32;;;3.53;;
48685;SDS011;34485;51.536;3.816;2022-12-20T00:20:19;3.87;;;3.57;;
48685;SDS011;34485;51.536;3.816;2022-12-20T00:22:44;5.57;;;4.57;;
48685;SDS011;34485;51.536;3.816;2022-12-20T00:25:10;8.73;;;4.03;;
48685;SDS011;34485;51.536;3.816;2022-12-20T00:27:36;7.07;;;3.72;;
48685;SDS011;34485;51.536;3.816;2022-12-20T00:30:02;5.67;;;3.23;;
48685;SDS011;34485;51.536;3.816;2022-12-20T00:32:28;5.60;;;3.38;;
48685;SDS011;34485;51.536;3.816;2022-12-20T00:34:54;5.53;;;4.13;;
48685;SDS011;34485;51.536;3.816;2022-12-20T00:37:19;9.03;;;4.23;;
48685;SDS011;34485;51.536;3.816;2022-12-20T00:39:45;7.73;;;3.67;;
48685;SDS011;34485;51.536;3.816;2022-12-20T00:42:11;6.05;;;3.97;;
48685;SDS011;34485;51.536;3.816;2022-12-20T00:44:36;6.00;;;3.70;;
48685;SDS011;34485;51.536;3.816;2022-12-20T00:47:02;7.47;;;4.50;;
48685;SDS011;34485;51.536;3.816;2022-12-20T00:49:28;6.10;;;4.00;;
48685;SDS011;34485;51.536;3.816;2022-12-20T00:51:54;7.13;;;3.85;;
48685;SDS011;34485;51.536;3.816;2022-12-20T00:54:20;5.00;;;4.53;;
48685;SDS011;34485;51.536;3.816;2022-12-20T00:56:46;11.18;;;4.43;;
48685;SDS011;34485;51.536;3.816;2022-12-20T00:59:12;8.63;;;3.63;;
48685;SDS011;34485;51.536;3.816;2022-12-20T01:01:37;6.53;;;4.00;;
48685;SDS011;34485;51.536;3.816;2022-12-20T01:04:03;8.53;;;3.97;;
48685;SDS011;34485;51.536;3.816;2022-12-20T01:06:29;6.70;;;3.95;;
48685;SDS011;34485;51.536;3.816;2022-12-20T01:08:56;5.22;;;3.92;;
48685;SDS011;34485;51.536;3.816;2022-12-20T01:11:23;5.03;;;3.60;;
48685;SDS011;34485;51.536;3.816;2022-12-20T01:14:00;6.05;;;4.03;;
48685;SDS011;34485;51.536;3.816;2022-12-20T01:16:37;3.92;;;3.50;;
48685;SDS011;34485;51.536;3.816;2022-12-20T01:19:04;7.65;;;4.18;;
48685;SDS011;34485;51.536;3.816;2022-12-20T01:21:32;5.90;;;4.47;;
48685;SDS011;34485;51.536;3.816;2022-12-20T01:23:59;7.87;;;4.83;;
48685;SDS011;34485;51.536;3.816;2022-12-20T01:26:25;5.40;;;4.32;;
48685;SDS011;34485;51.536;3.816;2022-12-20T01:28:54;4.63;;;3.47;;
48685;SDS011;34485;51.536;3.816;2022-12-20T01:31:21;8.17;;;3.90;;
48685;SDS011;34485;51.536;3.816;2022-12-20T01:33:48;7.47;;;4.20;;
48685;SDS011;34485;51.536;3.816;2022-12-20T01:36:18;6.88;;;4.72;;
48685;SDS011;34485;51.536;3.816;2022-12-20T01:38:46;6.20;;;4.25;;
48685;SDS011;34485;51.536;3.816;2022-12-20T01:41:15;6.50;;;4.47;;
48685;SDS011;34485;51.536;3.816;2022-12-20T01:43:52;7.97;;;3.00;;
48685;SDS011;34485;51.536;3.816;2022-12-20T01:46:20;6.65;;;3.90;;
48685;SDS011;34485;51.536;3.816;2022-12-20T01:48:48;6.85;;;4.13;;
48685;SDS011;34485;51.536;3.816;2022-12-20T01:51:15;5.50;;;3.58;;
48685;SDS011;34485;51.536;3.816;2022-12-20T01:53:41;5.88;;;4.28;;
48685;SDS011;34485;51.536;3.816;2022-12-20T01:56:07;10.43;;;4.07;;
48685;SDS011;34485;51.536;3.816;2022-12-20T01:58:34;9.55;;;4.30;;
48685;SDS011;34485;51.536;3.816;2022-12-20T02:01:01;5.68;;;4.13;;
48685;SDS011;34485;51.536;3.816;2022-12-20T02:03:27;5.45;;;3.50;;
48685;SDS011;34485;51.536;3.816;2022-12-20T02:05:55;7.35;;;3.92;;
48685;SDS011;34485;51.536;3.816;2022-12-20T02:08:21;4.83;;;3.77;;
48685;SDS011;34485;51.536;3.816;2022-12-20T02:10:50;7.93;;;4.17;;
48685;SDS011;34485;51.536;3.816;2022-12-20T02:14:06;4.97;;;3.60;;
48685;SDS011;34485;51.536;3.816;2022-12-20T02:16:28;6.22;;;4.22;;
48685;SDS011;34485;51.536;3.816;2022-12-20T02:21:42;5.45;;;3.67;;
48685;SDS011;34485;51.536;3.816;2022-12-20T02:30:00;4.18;;;3.35;;
48685;SDS011;34485;51.536;3.816;2022-12-20T02:32:38;6.40;;;4.43;;
48685;SDS011;34485;51.536;3.816;2022-12-20T02:35:09;5.75;;;4.10;;
48685;SDS011;34485;51.536;3.816;2022-12-20T02:38:00;6.05;;;3.92;;
48685;SDS011;34485;51.536;3.816;2022-12-20T02:40:36;5.15;;;3.53;;
48685;SDS011;34485;51.536;3.816;2022-12-20T02:43:06;4.97;;;3.72;;
48685;SDS011;34485;51.536;3.816;2022-12-20T02:45:52;5.50;;;3.90;;
48685;SDS011;34485;51.536;3.816;2022-12-20T02:48:19;4.47;;;4.07;;
48685;SDS011;34485;51.536;3.816;2022-12-20T02:50:48;4.80;;;3.83;;
48685;SDS011;34485;51.536;3.816;2022-12-20T02:53:17;4.18;;;3.78;;
48685;SDS011;34485;51.536;3.816;2022-12-20T02:55:45;4.28;;;3.88;;
48685;SDS011;34485;51.536;3.816;2022-12-20T03:00:47;5.28;;;3.35;;
48685;SDS011;34485;51.536;3.816;2022-12-20T03:03:15;6.53;;;3.63;;
48685;SDS011;34485;51.536;3.816;2022-12-20T03:05:46;4.68;;;3.47;;
48685;SDS011;34485;51.536;3.816;2022-12-20T03:08:14;5.65;;;3.80;;
48685;SDS011;34485;51.536;3.816;2022-12-20T03:10:41;5.57;;;3.73;;
48685;SDS011;34485;51.536;3.816;2022-12-20T03:13:07;5.45;;;3.60;;
48685;SDS011;34485;51.536;3.816;2022-12-20T03:15:32;7.33;;;4.20;;
48685;SDS011;34485;51.536;3.816;2022-12-20T03:17:58;10.00;;;4.97;;
48685;SDS011;34485;51.536;3.816;2022-12-20T03:20:23;4.63;;;4.17;;
48685;SDS011;34485;51.536;3.816;2022-12-20T03:22:49;8.63;;;3.70;;
48685;SDS011;34485;51.536;3.816;2022-12-20T03:25:15;5.80;;;3.67;;
48685;SDS011;34485;51.536;3.816;2022-12-20T03:27:41;4.40;;;4.00;;
48685;SDS011;34485;51.536;3.816;2022-12-20T03:30:06;6.20;;;3.70;;
48685;SDS011;34485;51.536;3.816;2022-12-20T03:32:32;6.32;;;4.10;;
48685;SDS011;34485;51.536;3.816;2022-12-20T03:34:58;4.95;;;4.45;;
48685;SDS011;34485;51.536;3.816;2022-12-20T03:37:24;5.20;;;4.00;;
48685;SDS011;34485;51.536;3.816;2022-12-20T03:39:50;6.68;;;4.22;;
48685;SDS011;34485;51.536;3.816;2022-12-20T03:42:15;7.93;;;4.57;;
48685;SDS011;34485;51.536;3.816;2022-12-20T03:44:41;5.32;;;4.13;;
48685;SDS011;34485;51.536;3.816;2022-12-20T03:47:06;9.70;;;4.90;;
48685;SDS011;34485;51.536;3.816;2022-12-20T03:49:32;6.23;;;4.90;;
48685;SDS011;34485;51.536;3.816;2022-12-20T03:51:58;9.27;;;5.07;;
48685;SDS011;34485;51.536;3.816;2022-12-20T03:54:23;11.60;;;4.77;;
48685;SDS011;34485;51.536;3.816;2022-12-20T03:56:49;5.22;;;4.43;;
48685;SDS011;34485;51.536;3.816;2022-12-20T03:59:15;10.47;;;3.43;;
48685;SDS011;34485;51.536;3.816;2022-12-20T04:01:40;6.00;;;4.35;;
48685;SDS011;34485;51.536;3.816;2022-12-20T04:04:06;4.67;;;3.43;;
48685;SDS011;34485;51.536;3.816;2022-12-20T04:06:33;5.78;;;4.60;;
48685;SDS011;34485;51.536;3.816;2022-12-20T04:08:59;6.23;;;4.47;;
48685;SDS011;34485;51.536;3.816;2022-12-20T04:11:24;3.90;;;3.50;;
48685;SDS011;34485;51.536;3.816;2022-12-20T04:13:51;5.10;;;3.50;;
48685;SDS011;34485;51.536;3.816;2022-12-20T04:16:21;6.03;;;3.10;;
48685;SDS011;34485;51.536;3.816;2022-12-20T04:18:49;6.03;;;4.25;;
48685;SDS011;34485;51.536;3.816;2022-12-20T04:21:20;5.53;;;3.37;;
48685;SDS011;34485;51.536;3.816;2022-12-20T04:23:50;3.38;;;3.10;;
48685;SDS011;34485;51.536;3.816;2022-12-20T04:26:15;8.45;;;3.70;;
48685;SDS011;34485;51.536;3.816;2022-12-20T04:28:41;8.70;;;4.40;;
48685;SDS011;34485;51.536;3.816;2022-12-20T04:31:07;7.93;;;3.90;;
48685;SDS011;34485;51.536;3.816;2022-12-20T04:33:33;7.33;;;3.73;;
48685;SDS011;34485;51.536;3.816;2022-12-20T04:35:58;4.78;;;3.63;;
48685;SDS011;34485;51.536;3.816;2022-12-20T04:38:24;8.20;;;3.93;;
48685;SDS011;34485;51.536;3.816;2022-12-20T04:40:50;5.10;;;3.65;;
48685;SDS011;34485;51.536;3.816;2022-12-20T04:43:17;5.45;;;4.13;;
48685;SDS011;34485;51.536;3.816;2022-12-20T04:45:43;11.40;;;4.00;;
48685;SDS011;34485;51.536;3.816;2022-12-20T04:48:11;4.13;;;3.15;;
48685;SDS011;34485;51.536;3.816;2022-12-20T04:50:37;3.57;;;3.27;;
48685;SDS011;34485;51.536;3.816;2022-12-20T04:53:02;5.15;;;3.42;;
48685;SDS011;34485;51.536;3.816;2022-12-20T04:55:47;7.68;;;3.72;;
48685;SDS011;34485;51.536;3.816;2022-12-20T04:58:12;8.20;;;3.83;;
48685;SDS011;34485;51.536;3.816;2022-12-20T05:00:38;5.10;;;2.80;;
48685;SDS011;34485;51.536;3.816;2022-12-20T05:03:03;8.82;;;4.05;;
48685;SDS011;34485;51.536;3.816;2022-12-20T05:05:29;5.80;;;3.27;;
48685;SDS011;34485;51.536;3.816;2022-12-20T05:07:55;7.32;;;4.43;;
48685;SDS011;34485;51.536;3.816;2022-12-20T05:10:21;4.97;;;3.70;;
48685;SDS011;34485;51.536;3.816;2022-12-20T05:12:46;4.63;;;3.15;;
48685;SDS011;34485;51.536;3.816;2022-12-20T05:15:12;6.20;;;4.00;;
48685;SDS011;34485;51.536;3.816;2022-12-20T05:17:38;4.20;;;3.23;;
48685;SDS011;34485;51.536;3.816;2022-12-20T05:20:04;3.10;;;2.83;;
48685;SDS011;34485;51.536;3.816;2022-12-20T05:22:30;6.15;;;3.42;;
48685;SDS011;34485;51.536;3.816;2022-12-20T05:25:14;5.22;;;3.30;;
48685;SDS011;34485;51.536;3.816;2022-12-20T05:27:59;5.35;;;3.20;;
48685;SDS011;34485;51.536;3.816;2022-12-20T05:30:25;7.43;;;3.40;;
48685;SDS011;34485;51.536;3.816;2022-12-20T05:32:51;4.77;;;3.13;;
48685;SDS011;34485;51.536;3.816;2022-12-20T05:35:17;7.88;;;3.35;;
48685;SDS011;34485;51.536;3.816;2022-12-20T05:37:43;2.97;;;2.30;;
48685;SDS011;34485;51.536;3.816;2022-12-20T05:40:09;5.73;;;3.30;;
48685;SDS011;34485;51.536;3.816;2022-12-20T05:42:36;5.55;;;3.05;;
48685;SDS011;34485;51.536;3.816;2022-12-20T05:45:02;5.18;;;3.47;;
48685;SDS011;34485;51.536;3.816;2022-12-20T05:47:29;4.43;;;2.97;;
48685;SDS011;34485;51.536;3.816;2022-12-20T05:49:58;3.67;;;3.22;;
48685;SDS011;34485;51.536;3.816;2022-12-20T05:52:24;5.37;;;3.20;;
48685;SDS011;34485;51.536;3.816;2022-12-20T05:54:50;6.93;;;3.88;;
48685;SDS011;34485;51.536;3.816;2022-12-20T05:57:15;5.07;;;3.23;;
48685;SDS011;34485;51.536;3.816;2022-12-20T05:59:41;5.40;;;3.30;;
48685;SDS011;34485;51.536;3.816;2022-12-20T06:02:07;9.13;;;3.72;;
48685;SDS011;34485;51.536;3.816;2022-12-20T06:04:34;4.78;;;3.33;;
48685;SDS011;34485;51.536;3.816;2022-12-20T06:07:00;4.53;;;2.87;;
48685;SDS011;34485;51.536;3.816;2022-12-20T06:09:26;4.40;;;3.63;;
48685;SDS011;34485;51.536;3.816;2022-12-20T06:11:52;6.57;;;3.97;;
48685;SDS011;34485;51.536;3.816;2022-12-20T06:14:17;3.93;;;3.50;;
48685;SDS011;34485;51.536;3.816;2022-12-20T06:16:43;4.35;;;2.60;;
48685;SDS011;34485;51.536;3.816;2022-12-20T06:19:09;3.83;;;3.40;;
48685;SDS011;34485;51.536;3.816;2022-12-20T06:21:34;4.80;;;3.60;;
48685;SDS011;34485;51.536;3.816;2022-12-20T06:24:00;8.02;;;3.40;;
48685;SDS011;34485;51.536;3.816;2022-12-20T06:26:25;3.80;;;2.50;;
48685;SDS011;34485;51.536;3.816;2022-12-20T06:28:51;4.68;;;3.08;;
48685;SDS011;34485;51.536;3.816;2022-12-20T06:31:19;4.97;;;3.30;;
48685;SDS011;34485;51.536;3.816;2022-12-20T06:33:45;5.60;;;3.65;;
48685;SDS011;34485;51.536;3.816;2022-12-20T06:36:11;3.53;;;3.08;;
48685;SDS011;34485;51.536;3.816;2022-12-20T06:38:37;8.80;;;3.47;;
48685;SDS011;34485;51.536;3.816;2022-12-20T06:41:03;5.93;;;3.83;;
48685;SDS011;34485;51.536;3.816;2022-12-20T06:43:29;7.37;;;3.00;;
48685;SDS011;34485;51.536;3.816;2022-12-20T06:45:54;4.60;;;3.10;;
48685;SDS011;34485;51.536;3.816;2022-12-20T06:48:20;4.03;;;3.28;;
48685;SDS011;34485;51.536;3.816;2022-12-20T06:50:48;4.73;;;2.90;;
48685;SDS011;34485;51.536;3.816;2022-12-20T06:53:14;6.50;;;3.10;;
48685;SDS011;34485;51.536;3.816;2022-12-20T06:55:40;5.93;;;3.33;;
48685;SDS011;34485;51.536;3.816;2022-12-20T06:58:05;7.63;;;3.70;;
48685;SDS011;34485;51.536;3.816;2022-12-20T07:00:31;7.57;;;3.47;;
48685;SDS011;34485;51.536;3.816;2022-12-20T07:02:56;4.27;;;3.00;;
48685;SDS011;34485;51.536;3.816;2022-12-20T07:05:22;5.57;;;3.53;;
48685;SDS011;34485;51.536;3.816;2022-12-20T07:07:48;6.70;;;3.90;;
48685;SDS011;34485;51.536;3.816;2022-12-20T07:10:14;4.53;;;3.28;;
48685;SDS011;34485;51.536;3.816;2022-12-20T07:12:40;4.70;;;3.30;;
48685;SDS011;34485;51.536;3.816;2022-12-20T07:15:05;5.50;;;3.17;;
48685;SDS011;34485;51.536;3.816;2022-12-20T07:17:32;4.95;;;3.38;;
48685;SDS011;34485;51.536;3.816;2022-12-20T07:19:58;11.07;;;4.05;;
48685;SDS011;34485;51.536;3.816;2022-12-20T07:22:23;5.80;;;3.37;;
48685;SDS011;34485;51.536;3.816;2022-12-20T07:24:49;5.67;;;3.50;;
48685;SDS011;34485;51.536;3.816;2022-12-20T07:27:15;6.55;;;2.88;;
48685;SDS011;34485;51.536;3.816;2022-12-20T07:29:40;6.80;;;3.90;;
48685;SDS011;34485;51.536;3.816;2022-12-20T07:32:06;8.02;;;3.53;;
48685;SDS011;34485;51.536;3.816;2022-12-20T07:34:32;5.70;;;3.53;;
48685;SDS011;34485;51.536;3.816;2022-12-20T07:36:58;4.88;;;3.53;;
48685;SDS011;34485;51.536;3.816;2022-12-20T07:39:23;7.97;;;3.87;;
48685;SDS011;34485;51.536;3.816;2022-12-20T07:41:52;6.33;;;4.00;;
48685;SDS011;34485;51.536;3.816;2022-12-20T07:44:18;5.30;;;3.40;;
48685;SDS011;34485;51.536;3.816;2022-12-20T07:46:44;7.13;;;3.93;;
48685;SDS011;34485;51.536;3.816;2022-12-20T07:49:10;6.57;;;3.50;;
48685;SDS011;34485;51.536;3.816;2022-12-20T07:51:36;6.53;;;3.80;;
48685;SDS011;34485;51.536;3.816;2022-12-20T07:54:05;10.63;;;5.40;;
48685;SDS011;34485;51.536;3.816;2022-12-20T07:56:39;10.73;;;4.53;;
48685;SDS011;34485;51.536;3.816;2022-12-20T07:59:10;5.60;;;3.22;;
48685;SDS011;34485;51.536;3.816;2022-12-20T08:01:38;5.07;;;3.63;;
48685;SDS011;34485;51.536;3.816;2022-12-20T08:04:09;10.55;;;3.88;;
48685;SDS011;34485;51.536;3.816;2022-12-20T08:06:39;11.20;;;3.35;;
48685;SDS011;34485;51.536;3.816;2022-12-20T08:09:06;9.97;;;4.03;;
48685;SDS011;34485;51.536;3.816;2022-12-20T08:11:33;6.50;;;3.40;;
48685;SDS011;34485;51.536;3.816;2022-12-20T08:14:01;8.27;;;4.13;;
48685;SDS011;34485;51.536;3.816;2022-12-20T08:16:28;7.82;;;3.47;;
48685;SDS011;34485;51.536;3.816;2022-12-20T08:18:55;3.78;;;2.97;;
48685;SDS011;34485;51.536;3.816;2022-12-20T08:21:20;4.23;;;3.33;;
48685;SDS011;34485;51.536;3.816;2022-12-20T08:23:46;14.30;;;4.13;;
48685;SDS011;34485;51.536;3.816;2022-12-20T08:26:11;3.55;;;3.10;;
48685;SDS011;34485;51.536;3.816;2022-12-20T08:28:37;5.27;;;3.40;;
48685;SDS011;34485;51.536;3.816;2022-12-20T08:31:03;6.53;;;3.53;;
48685;SDS011;34485;51.536;3.816;2022-12-20T08:33:31;4.10;;;2.97;;
48685;SDS011;34485;51.536;3.816;2022-12-20T08:35:59;6.53;;;3.20;;
48685;SDS011;34485;51.536;3.816;2022-12-20T08:38:29;4.70;;;3.78;;
48685;SDS011;34485;51.536;3.816;2022-12-20T08:41:00;6.80;;;3.30;;
48685;SDS011;34485;51.536;3.816;2022-12-20T08:43:27;8.93;;;4.07;;
48685;SDS011;34485;51.536;3.816;2022-12-20T08:45:53;6.10;;;3.63;;
48685;SDS011;34485;51.536;3.816;2022-12-20T08:48:19;7.65;;;3.92;;
48685;SDS011;34485;51.536;3.816;2022-12-20T08:50:45;7.10;;;3.60;;
48685;SDS011;34485;51.536;3.816;2022-12-20T08:53:11;6.27;;;3.50;;
48685;SDS011;34485;51.536;3.816;2022-12-20T08:55:36;8.00;;;4.70;;
48685;SDS011;34485;51.536;3.816;2022-12-20T08:58:02;7.50;;;3.77;;
48685;SDS011;34485;51.536;3.816;2022-12-20T09:00:28;8.85;;;3.65;;
48685;SDS011;34485;51.536;3.816;2022-12-20T09:02:53;8.90;;;3.20;;
48685;SDS011;34485;51.536;3.816;2022-12-20T09:05:19;6.13;;;4.18;;
48685;SDS011;34485;51.536;3.816;2022-12-20T09:07:45;6.47;;;4.27;;
48685;SDS011;34485;51.536;3.816;2022-12-20T09:10:11;5.35;;;3.83;;
48685;SDS011;34485;51.536;3.816;2022-12-20T09:12:37;6.95;;;4.38;;
48685;SDS011;34485;51.536;3.816;2022-12-20T09:15:03;5.87;;;4.17;;
48685;SDS011;34485;51.536;3.816;2022-12-20T09:17:29;9.15;;;3.47;;
48685;SDS011;34485;51.536;3.816;2022-12-20T09:19:55;5.03;;;3.42;;
48685;SDS011;34485;51.536;3.816;2022-12-20T09:22:21;4.83;;;4.10;;
48685;SDS011;34485;51.536;3.816;2022-12-20T09:24:46;7.47;;;4.47;;
48685;SDS011;34485;51.536;3.816;2022-12-20T09:27:13;13.75;;;4.85;;
48685;SDS011;34485;51.536;3.816;2022-12-20T09:29:38;5.65;;;4.32;;
48685;SDS011;34485;51.536;3.816;2022-12-20T09:32:04;9.70;;;4.03;;
48685;SDS011;34485;51.536;3.816;2022-12-20T09:34:30;6.88;;;4.22;;
48685;SDS011;34485;51.536;3.816;2022-12-20T09:36:56;11.10;;;4.23;;
48685;SDS011;34485;51.536;3.816;2022-12-20T09:39:21;6.28;;;4.55;;
48685;SDS011;34485;51.536;3.816;2022-12-20T09:41:47;6.37;;;4.40;;
48685;SDS011;34485;51.536;3.816;2022-12-20T09:44:15;5.00;;;3.38;;
48685;SDS011;34485;51.536;3.816;2022-12-20T09:46:46;7.43;;;4.80;;
48685;SDS011;34485;51.536;3.816;2022-12-20T09:49:19;12.60;;;5.17;;
48685;SDS011;34485;51.536;3.816;2022-12-20T09:59:52;7.65;;;4.03;;
48685;SDS011;34485;51.536;3.816;2022-12-20T10:02:22;4.40;;;3.93;;
48685;SDS011;34485;51.536;3.816;2022-12-20T10:04:49;5.85;;;4.50;;
48685;SDS011;34485;51.536;3.816;2022-12-20T10:12:45;9.30;;;4.80;;
48685;SDS011;34485;51.536;3.816;2022-12-20T10:15:27;9.60;;;5.00;;
48685;SDS011;34485;51.536;3.816;2022-12-20T10:23:24;11.40;;;4.32;;
48685;SDS011;34485;51.536;3.816;2022-12-20T10:25:52;12.45;;;6.22;;
48685;SDS011;34485;51.536;3.816;2022-12-20T10:28:24;12.70;;;4.47;;
48685;SDS011;34485;51.536;3.816;2022-12-20T10:30:57;9.75;;;5.40;;
48685;SDS011;34485;51.536;3.816;2022-12-20T10:33:27;17.47;;;6.90;;
48685;SDS011;34485;51.536;3.816;2022-12-20T10:35:55;6.93;;;4.55;;
48685;SDS011;34485;51.536;3.816;2022-12-20T10:38:43;11.85;;;5.60;;
48685;SDS011;34485;51.536;3.816;2022-12-20T10:41:13;10.40;;;5.68;;
48685;SDS011;34485;51.536;3.816;2022-12-20T10:43:46;9.00;;;5.32;;
48685;SDS011;34485;51.536;3.816;2022-12-20T10:46:16;15.37;;;6.17;;
48685;SDS011;34485;51.536;3.816;2022-12-20T10:48:43;10.30;;;5.20;;
48685;SDS011;34485;51.536;3.816;2022-12-20T10:56:18;9.57;;;5.35;;
48685;SDS011;34485;51.536;3.816;2022-12-20T10:59:01;8.17;;;5.60;;
48685;SDS011;34485;51.536;3.816;2022-12-20T11:01:28;11.75;;;5.35;;
48685;SDS011;34485;51.536;3.816;2022-12-20T11:03:57;7.65;;;5.95;;
48685;SDS011;34485;51.536;3.816;2022-12-20T11:06:29;9.15;;;5.00;;
48685;SDS011;34485;51.536;3.816;2022-12-20T11:11:57;10.43;;;5.70;;
48685;SDS011;34485;51.536;3.816;2022-12-20T11:14:28;7.00;;;4.88;;
48685;SDS011;34485;51.536;3.816;2022-12-20T11:16:55;6.78;;;5.72;;
48685;SDS011;34485;51.536;3.816;2022-12-20T11:22:08;11.45;;;5.40;;
48685;SDS011;34485;51.536;3.816;2022-12-20T11:30:06;10.40;;;6.53;;
48685;SDS011;34485;51.536;3.816;2022-12-20T11:44:06;9.15;;;6.75;;
48685;SDS011;34485;51.536;3.816;2022-12-20T11:54:55;11.23;;;6.88;;
48685;SDS011;34485;51.536;3.816;2022-12-20T11:57:29;12.05;;;6.45;;
48685;SDS011;34485;51.536;3.816;2022-12-20T12:00:01;11.18;;;6.72;;
48685;SDS011;34485;51.536;3.816;2022-12-20T12:02:31;14.10;;;7.90;;
48685;SDS011;34485;51.536;3.816;2022-12-20T12:05:04;17.63;;;7.73;;
48685;SDS011;34485;51.536;3.816;2022-12-20T12:07:32;15.05;;;6.88;;
48685;SDS011;34485;51.536;3.816;2022-12-20T12:12:46;13.60;;;6.60;;
48685;SDS011;34485;51.536;3.816;2022-12-20T12:15:35;14.45;;;7.25;;
48685;SDS011;34485;51.536;3.816;2022-12-20T12:18:23;14.87;;;6.23;;
48685;SDS011;34485;51.536;3.816;2022-12-20T12:26:24;13.40;;;6.47;;
48685;SDS011;34485;51.536;3.816;2022-12-20T12:28:59;9.77;;;5.72;;
48685;SDS011;34485;51.536;3.816;2022-12-20T12:31:35;14.97;;;7.70;;
48685;SDS011;34485;51.536;3.816;2022-12-20T12:42:31;19.35;;;10.32;;
48685;SDS011;34485;51.536;3.816;2022-12-20T12:45:04;15.83;;;8.50;;
48685;SDS011;34485;51.536;3.816;2022-12-20T12:47:42;23.75;;;10.85;;
48685;SDS011;34485;51.536;3.816;2022-12-20T12:50:23;17.58;;;10.02;;
48685;SDS011;34485;51.536;3.816;2022-12-20T12:52:54;22.15;;;9.98;;
48685;SDS011;34485;51.536;3.816;2022-12-20T12:58:14;11.47;;;7.80;;
48685;SDS011;34485;51.536;3.816;2022-12-20T13:11:32;13.70;;;7.97;;
48685;SDS011;34485;51.536;3.816;2022-12-20T13:16:49;12.88;;;8.20;;
48685;SDS011;34485;51.536;3.816;2022-12-20T13:21:52;14.88;;;8.43;;
48685;SDS011;34485;51.536;3.816;2022-12-20T13:27:00;14.52;;;8.02;;
48685;SDS011;34485;51.536;3.816;2022-12-20T13:29:31;10.05;;;8.93;;
48685;SDS011;34485;51.536;3.816;2022-12-20T13:31:59;12.30;;;7.55;;
48685;SDS011;34485;51.536;3.816;2022-12-20T13:37:25;13.03;;;7.33;;
48685;SDS011;34485;51.536;3.816;2022-12-20T13:40:18;13.93;;;8.45;;
48685;SDS011;34485;51.536;3.816;2022-12-20T13:43:09;15.73;;;9.13;;
48685;SDS011;34485;51.536;3.816;2022-12-20T13:51:18;12.37;;;7.73;;
48685;SDS011;34485;51.536;3.816;2022-12-20T13:56:35;17.38;;;9.90;;
48685;SDS011;34485;51.536;3.816;2022-12-20T13:59:04;15.23;;;8.63;;
48685;SDS011;34485;51.536;3.816;2022-12-20T14:01:36;15.23;;;9.57;;
48685;SDS011;34485;51.536;3.816;2022-12-20T14:04:16;10.17;;;8.37;;
48685;SDS011;34485;51.536;3.816;2022-12-20T14:06:43;17.73;;;10.25;;
48685;SDS011;34485;51.536;3.816;2022-12-20T14:09:25;21.90;;;11.15;;
48685;SDS011;34485;51.536;3.816;2022-12-20T14:12:11;19.90;;;16.52;;
48685;SDS011;34485;51.536;3.816;2022-12-20T14:14:41;46.77;;;30.00;;
48685;SDS011;34485;51.536;3.816;2022-12-20T14:25:34;14.07;;;10.60;;
48685;SDS011;34485;51.536;3.816;2022-12-20T14:30:57;18.25;;;11.52;;
48685;SDS011;34485;51.536;3.816;2022-12-20T14:33:27;16.73;;;11.43;;
48685;SDS011;34485;51.536;3.816;2022-12-20T14:35:55;13.15;;;9.98;;
48685;SDS011;34485;51.536;3.816;2022-12-20T14:38:30;20.80;;;13.95;;
48685;SDS011;34485;51.536;3.816;2022-12-20T14:40:56;17.27;;;12.37;;
48685;SDS011;34485;51.536;3.816;2022-12-20T14:43:26;18.13;;;11.13;;
48685;SDS011;34485;51.536;3.816;2022-12-20T14:48:42;17.40;;;10.30;;
48685;SDS011;34485;51.536;3.816;2022-12-20T14:51:08;15.93;;;9.97;;
48685;SDS011;34485;51.536;3.816;2022-12-20T14:53:34;18.00;;;9.43;;
48685;SDS011;34485;51.536;3.816;2022-12-20T14:56:01;16.50;;;11.07;;
48685;SDS011;34485;51.536;3.816;2022-12-20T14:58:33;16.00;;;9.00;;
48685;SDS011;34485;51.536;3.816;2022-12-20T15:01:14;13.82;;;10.07;;
48685;SDS011;34485;51.536;3.816;2022-12-20T15:09:08;14.75;;;9.98;;
48685;SDS011;34485;51.536;3.816;2022-12-20T15:11:34;17.70;;;10.27;;
48685;SDS011;34485;51.536;3.816;2022-12-20T15:14:01;15.68;;;11.25;;
48685;SDS011;34485;51.536;3.816;2022-12-20T15:16:38;27.27;;;14.23;;
48685;SDS011;34485;51.536;3.816;2022-12-20T15:19:12;22.60;;;12.88;;
48685;SDS011;34485;51.536;3.816;2022-12-20T15:21:39;26.85;;;15.20;;
48685;SDS011;34485;51.536;3.816;2022-12-20T15:24:13;19.03;;;11.40;;
48685;SDS011;34485;51.536;3.816;2022-12-20T15:26:41;15.18;;;12.00;;
48685;SDS011;34485;51.536;3.816;2022-12-20T15:29:11;17.80;;;11.50;;
48685;SDS011;34485;51.536;3.816;2022-12-20T15:31:50;18.08;;;12.52;;
48685;SDS011;34485;51.536;3.816;2022-12-20T15:34:48;26.95;;;18.20;;
48685;SDS011;34485;51.536;3.816;2022-12-20T15:37:14;24.13;;;16.53;;
48685;SDS011;34485;51.536;3.816;2022-12-20T15:39:40;24.05;;;14.07;;
48685;SDS011;34485;51.536;3.816;2022-12-20T15:42:06;23.30;;;16.45;;
48685;SDS011;34485;51.536;3.816;2022-12-20T15:44:37;20.57;;;14.73;;
48685;SDS011;34485;51.536;3.816;2022-12-20T15:47:02;21.65;;;13.23;;
48685;SDS011;34485;51.536;3.816;2022-12-20T15:49:29;19.30;;;13.70;;
48685;SDS011;34485;51.536;3.816;2022-12-20T15:51:56;22.48;;;14.18;;
48685;SDS011;34485;51.536;3.816;2022-12-20T15:56:51;19.65;;;13.63;;
48685;SDS011;34485;51.536;3.816;2022-12-20T15:59:21;40.88;;;22.15;;
48685;SDS011;34485;51.536;3.816;2022-12-20T16:01:46;33.40;;;21.17;;
48685;SDS011;34485;51.536;3.816;2022-12-20T16:04:13;33.10;;;22.33;;
48685;SDS011;34485;51.536;3.816;2022-12-20T16:06:43;24.13;;;15.35;;
48685;SDS011;34485;51.536;3.816;2022-12-20T16:09:11;23.13;;;14.00;;
48685;SDS011;34485;51.536;3.816;2022-12-20T16:11:38;23.42;;;12.77;;
48685;SDS011;34485;51.536;3.816;2022-12-20T16:14:05;19.88;;;13.35;;
48685;SDS011;34485;51.536;3.816;2022-12-20T16:16:32;22.05;;;13.80;;
48685;SDS011;34485;51.536;3.816;2022-12-20T16:18:59;23.88;;;16.00;;
48685;SDS011;34485;51.536;3.816;2022-12-20T16:21:32;23.93;;;15.77;;
48685;SDS011;34485;51.536;3.816;2022-12-20T16:24:00;27.92;;;15.85;;
48685;SDS011;34485;51.536;3.816;2022-12-20T16:26:26;29.58;;;16.55;;
48685;SDS011;34485;51.536;3.816;2022-12-20T16:28:52;23.42;;;15.00;;
48685;SDS011;34485;51.536;3.816;2022-12-20T16:33:52;23.33;;;14.90;;
48685;SDS011;34485;51.536;3.816;2022-12-20T16:36:18;24.92;;;15.65;;
48685;SDS011;34485;51.536;3.816;2022-12-20T16:38:44;25.08;;;17.20;;
48685;SDS011;34485;51.536;3.816;2022-12-20T16:41:14;22.70;;;16.37;;
48685;SDS011;34485;51.536;3.816;2022-12-20T16:43:42;27.67;;;18.27;;
48685;SDS011;34485;51.536;3.816;2022-12-20T16:46:09;31.83;;;20.02;;
48685;SDS011;34485;51.536;3.816;2022-12-20T16:48:42;28.63;;;20.05;;
48685;SDS011;34485;51.536;3.816;2022-12-20T16:53:54;26.37;;;18.87;;
48685;SDS011;34485;51.536;3.816;2022-12-20T16:56:21;27.13;;;19.85;;
48685;SDS011;34485;51.536;3.816;2022-12-20T16:58:47;27.30;;;19.55;;
48685;SDS011;34485;51.536;3.816;2022-12-20T17:01:15;28.20;;;21.00;;
48685;SDS011;34485;51.536;3.816;2022-12-20T17:03:43;34.10;;;20.05;;
48685;SDS011;34485;51.536;3.816;2022-12-20T17:06:10;28.30;;;18.93;;
48685;SDS011;34485;51.536;3.816;2022-12-20T17:08:37;34.05;;;20.13;;
48685;SDS011;34485;51.536;3.816;2022-12-20T17:13:43;29.08;;;19.08;;